• Join FlightAware (Why Join?)
  • Login
  • US Flag 
09:16PM EDT


 

Airport Tracker/Info


-or-


 

Live Flight TrackerFlight Track Log ✈ N789EX ✈ 13-Mar-2014 ✈ KBFI - KMWH

Flight Track Log - Related Links

Times and Time Zones

All times are in EDT time to prevent confusion due to time zone crossing. See the N789EX flight status page for this flight to view local times or setup timezone preferences in your user account.

Time Position Orientation Groundspeed Altitude Reporting Facility
EDT Latitude Longitude Course Direction KTS MPH feet Rate Location/Type
04:36PM 47.5080 -122.2840 149° Southeast 182 209 1,000  Level FlightAware ADS-B
04:36PM 47.4979 -122.2740 147° Southeast 197 227 1,400 1,860 Climbing FlightAware ADS-B
04:36PM 47.4856 -122.2620 146° Southeast 214 246 1,900 2,340 Climbing FlightAware ADS-B
04:37PM 47.4793 -122.2560 146° Southeast 220 253 2,300 2,400 Climbing FlightAware ADS-B
04:37PM 47.4689 -122.2450 146° Southeast 236 272 2,700 1,860 Climbing FlightAware ADS-B
04:37PM 47.4647 -122.2410 146° Southeast 243 280 2,800 2,100 Climbing FlightAware ADS-B
04:37PM 47.4499 -122.2270 147° Southeast 256 295 3,400 2,700 Climbing FlightAware ADS-B
04:37PM 47.4451 -122.2220 141° Southeast 259 298 3,700 3,300 Climbing FlightAware ADS-B
04:37PM 47.4413 -122.2160 133° Southeast 263 303 3,900 2,640 Climbing FlightAware ADS-B
04:37PM 47.4384 -122.2100 123° Southeast 269 310 4,100 2,520 Climbing FlightAware ADS-B
04:37PM 47.4366 -122.2040 113° Southeast 273 314 4,200 2,520 Climbing FlightAware ADS-B
04:37PM 47.4353 -122.1980 105° East 275 316 4,400 3,720 Climbing FlightAware ADS-B
04:37PM 47.4345 -122.1910 97° East 275 316 4,700 5,220 Climbing FlightAware ADS-B
04:38PM 47.4342 -122.1830 93° East 273 314 5,100 4,500 Climbing FlightAware ADS-B
04:38PM 47.4339 -122.1690 92° East 269 310 5,600 4,380 Climbing FlightAware ADS-B
04:38PM 47.4334 -122.1560 94° East 265 305 6,200 3,840 Climbing FlightAware ADS-B
04:38PM 47.4320 -122.1370 96° East 268 308 6,700 3,120 Climbing FlightAware ADS-B
04:38PM 47.4312 -122.1240 95° East 273 314 7,100 3,000 Climbing FlightAware ADS-B
04:38PM 47.4308 -122.1140 93° East 277 319 7,300 2,280 Climbing FlightAware ADS-B
04:38PM 47.4301 -122.0850 91° East 287 330 7,900 2,700 Climbing FlightAware ADS-B
04:39PM 47.4297 -122.0550 91° East 293 337 8,700 3,180 Climbing FlightAware ADS-B
04:39PM 47.4296 -122.0240 90° East 294 338 9,500 2,880 Climbing FlightAware ADS-B
04:39PM 47.4298 -121.9770 90° East 303 349 10,600 3,000 Climbing FlightAware ADS-B
04:40PM 47.4293 -121.9300 92° East 303 349 11,800 3,000 Climbing FlightAware ADS-B
04:40PM 47.4280 -121.8760 92° East 310 357 13,000 2,220 Climbing FlightAware ADS-B
04:40PM 47.4280 -121.8400 89° East 325 374 13,400 1,860 Climbing FlightAware ADS-B
04:41PM 47.4285 -121.8125 88° East 330 380 14,000 2,460 Climbing FlightAware ADS-B (CYVR)
04:41PM 47.4291 -121.7740 89° East 334 384 14,600 1,200 Climbing FlightAware ADS-B
04:41PM 47.4288 -121.7140 90° East 356 410 14,800 180 Climbing FlightAware ADS-B
04:42PM 47.4288 -121.6330 90° East 342 394 14,800  Level FlightAware ADS-B
04:42PM 47.4267 -121.5620 92° East 337 388 14,800  Level FlightAware ADS-B
04:42PM 47.4265 -121.5504 92° East 329 379 14,800 360 Level FlightAware ADS-B (CYVR)
04:43PM 47.4261 -121.5250 91° East 325 374 14,900 420 Climbing FlightAware ADS-B
04:43PM 47.4267 -121.4560 89° East 354 407 15,100 240 Climbing FlightAware ADS-B
04:43PM 47.4270 -121.4080 91° East 380 437 15,100  Level FlightAware ADS-B
04:44PM 47.4262 -121.3960 98° East 380 437 15,100  Level FlightAware ADS-B
04:44PM 47.4224 -121.3820 116° Southeast 376 433 15,100  Level FlightAware ADS-B
04:44PM 47.4189 -121.3750 126° Southeast 377 434 15,100 -720 Level FlightAware ADS-B
04:44PM 47.4114 -121.3630 131° Southeast 379 436 15,000 -540 Descending FlightAware ADS-B
04:44PM 47.4058 -121.3510 122° Southeast 378 435 15,000  Level FlightAware ADS-B
04:44PM 47.4034 -121.3420 109° East 379 436 15,000 1,200 Level FlightAware ADS-B
04:44PM 47.4033 -121.3409 103° East 380 437 15,100 -1,200 Climbing FlightAware ADS-B (CYVR)
04:44PM 47.4023 -121.3300 96° East 382 440 14,900 -2,580 Descending FlightAware ADS-B
04:44PM 47.4028 -121.3210 85° East 386 444 14,800 -1,740 Descending FlightAware ADS-B
04:44PM 47.4041 -121.3110 76° East 388 447 14,700 -780 Descending FlightAware ADS-B
04:44PM 47.4070 -121.3000 68° East 396 456 14,700  Level FlightAware ADS-B
04:44PM 47.4103 -121.2890 62° Northeast 402 463 14,700 1,020 Level FlightAware ADS-B
04:45PM 47.4289 -121.2450 59° Northeast 422 486 15,100 840 Climbing FlightAware ADS-B
04:45PM 47.4361 -121.2250 64° Northeast 432 497 15,100  Level FlightAware ADS-B
04:45PM 47.4385 -121.2170 68° East 436 502 15,100 960 Level FlightAware ADS-B
04:45PM 47.4403 -121.2090 73° East 438 504 15,200 1,500 Climbing FlightAware ADS-B
04:45PM 47.4419 -121.1920 85° East 437 503 15,300 1,500 Climbing FlightAware ADS-B
04:45PM 47.4417 -121.1830 92° East 437 503 15,400 1,680 Climbing FlightAware ADS-B
04:45PM 47.4402 -121.1720 102° East 436 502 15,500 900 Climbing FlightAware ADS-B
04:45PM 47.4337 -121.1490 113° Southeast 438 504 15,600 -240 Climbing FlightAware ADS-B
04:45PM 47.4195 -121.0970 109° East 443 510 15,400 -720 Descending FlightAware ADS-B
04:46PM 47.4155 -121.0720 100° East 444 511 15,300 -180 Descending FlightAware ADS-B
04:46PM 47.4105 -120.9810 94° East 456 525 15,300 300 Level FlightAware ADS-B
04:47PM 47.4063 -120.8860 94° East 460 529 15,600 -240 Climbing FlightAware ADS-B
04:47PM 47.4016 -120.7860 94° East 396 456 15,100 -300 Descending FlightAware ADS-B
04:48PM 47.3979 -120.7070 94° East 383 441 15,300 240 Climbing FlightAware ADS-B
04:48PM 47.3956 -120.6200 94° East 386 444 15,400 300 Climbing FlightAware ADS-B
04:48PM 47.3980 -120.6060 75° East 389 448 15,500 600 Climbing FlightAware ADS-B
04:48PM 47.4006 -120.5970 68° East 388 447 15,500 660 Level FlightAware ADS-B
04:49PM 47.4106 -120.5640 72° East 385 443 15,700 420 Climbing FlightAware ADS-B
04:49PM 47.4234 -120.5000 66° East 390 449 15,800  Climbing FlightAware ADS-B
04:49PM 47.4313 -120.4730 68° East 396 456 15,700 -300 Descending FlightAware ADS-B
04:49PM 47.4346 -120.4410 87° East 397 457 15,700 -180 Level FlightAware ADS-B
04:50PM 47.4295 -120.2880 91° East 394 453 15,500 -240 Descending FlightAware ADS-B
04:51PM 47.4263 -120.2770 111° Southeast 376 433 15,500 -600 Level FlightAware ADS-B
04:51PM 47.4211 -120.2650 124° Southeast 377 434 15,400 -360 Descending FlightAware ADS-B
04:51PM 47.4096 -120.2430 128° Southeast 379 436 15,400  Level FlightAware ADS-B
04:51PM 47.4044 -120.2300 118° Southeast 381 438 15,400 840 Level FlightAware ADS-B
04:51PM 47.3982 -120.1910 100° East 384 442 15,700  Climbing FlightAware ADS-B
04:53PM 47.3897 -119.9683 100° East 393 452 15,500 180 Descending Seattle Center
04:54PM 47.4389 -119.8361 61° Northeast 394 453 16,200 240 Climbing Seattle Center
04:55PM 47.4786 -119.6889 68° East 398 458 16,000 -480 Descending Seattle Center
04:56PM 47.4236 -119.5539 121° Southeast 391 450 15,300 -300 Descending Seattle Center
04:57PM 47.3283 -119.5811 191° South 352 405 15,400 120 Climbing Seattle Center
04:58PM 47.2525 -119.6714 219° Southwest 352 405 15,600 120 Climbing Seattle Center
04:59PM 47.1689 -119.7333 207° Southwest 371 427 15,700 -60 Climbing Seattle Center
05:00PM 47.1053 -119.6069 126° Southeast 381 438 15,500 -120 Descending Seattle Center
05:01PM 47.0611 -119.4694 115° Southeast 375 432 15,500 -60 Level Seattle Center
05:02PM 47.0206 -119.3478 116° Southeast 339 390 15,400 -120 Descending Seattle Center
05:03PM 46.9764 -119.2222 117° Southeast 337 388 15,300  Descending Seattle Center
05:04PM 46.9517 -119.0914 105° East 334 384 15,500 -180 Climbing Seattle Center
05:05PM 46.9275 -118.9608 105° East 335 386 15,000 -300 Descending Seattle Center
05:06PM 46.9011 -118.8175 105° East 338 389 15,000 -240 Level Seattle Center
05:07PM 46.8828 -118.7111 104° East 269 310 14,600 -480 Descending Seattle Center
05:08PM 46.8667 -118.6222 105° East 219 252 14,100 -540 Descending Seattle Center
05:09PM 46.8589 -118.5425 98° East 207 238 13,600 -360 Descending Seattle Center
05:10PM 46.8511 -118.4581 98° East 201 231 13,400 120 Descending Seattle Center
05:11PM 46.8406 -118.3467 98° East 290 334 13,900 420 Climbing Seattle Center
05:12PM 46.8308 -118.2450 98° East 252 290 14,300 180 Climbing Seattle Center
05:13PM 46.8214 -118.1531 99° East 235 270 14,300  Level Seattle Center
05:14PM 46.8233 -118.0417 88° East 280 322 14,400 -60 Climbing Seattle Center
05:15PM 46.8731 -118.0544 350° North 242 278 14,200  Descending Seattle Center
05:16PM 46.8847 -118.1494 280° West 236 272 14,500 120 Climbing Seattle Center
05:17PM 46.8942 -118.2469 278° West 243 280 14,500  Level Seattle Center
05:18PM 46.9006 -118.3528 275° West 238 274 14,500 240 Level Seattle Center
05:19PM 46.9058 -118.4342 275° West 207 238 15,000 480 Climbing Seattle Center
05:20PM 46.9064 -118.5133 271° West 195 224 15,500 240 Climbing Seattle Center
05:21PM 46.9061 -118.5925 270° West 198 228 15,500  Level Seattle Center
05:22PM 46.9031 -118.6786 267° West 197 227 15,500 -60 Level Seattle Center
05:23PM 46.8967 -118.7597 263° West 199 229 15,400 -120 Descending Seattle Center
05:24PM 46.8992 -118.8394 273° West 201 231 15,300 -240 Descending Seattle Center
05:25PM 46.8931 -118.9197 264° West 199 229 15,000 -240 Descending Seattle Center
05:26PM 46.8992 -119.0092 276° West 207 238 14,900 -60 Descending Seattle Center
05:27PM 46.8967 -119.0903 267° West 200 230 14,900  Level Seattle Center
05:28PM 46.9061 -119.1667 280° West 205 236 15,000  Climbing Seattle Center
05:29PM 46.9461 -119.2242 316° Northwest 205 236 15,000  Level Seattle Center
05:30PM 47.0028 -119.2342 353° North 216 249 15,100  Climbing Seattle Center
05:31PM 47.0544 -119.1761 37° Northeast 228 262 15,100  Level Seattle Center
05:32PM 47.0789 -119.0931 67° East 235 270 15,100 -60 Level Seattle Center
05:33PM 47.0825 -118.9992 87° East 232 267 15,000 -660 Descending Seattle Center
05:34PM 47.0642 -118.8894 104° East 288 331 13,800 -1,320 Descending Seattle Center
05:35PM 47.0036 -118.8217 143° Southeast 282 325 12,400 -1,620 Descending Seattle Center
05:36PM 47.0064 -118.9117 273° West 267 307 10,600 -1,800 Descending Seattle Center
05:37PM 47.0742 -118.9519 338° Northwest 263 303 8,800 -1,620 Descending Seattle Center
05:38PM 47.1028 -118.8994 51° Northeast 241 277 7,400 -1,500 Descending Seattle Center
05:39PM 47.0647 -118.9333 211° Southwest 187 215 5,800 -1,200 Descending Seattle Center
05:40PM 47.0456 -118.9878 243° Southwest 180 207 5,000 -840 Descending Seattle Center
05:41PM 47.0567 -119.0572 283° West 178 205 4,100 -540 Descending Seattle Center
05:42PM 47.0669 -119.1233 283° West 174 200 4,000 -120 Descending Seattle Center
05:44PM 47.1271 -119.2106 315° West  Level FlightAware Approximate